sensor_id;sensor_type;location;lat;lon;timestamp;P1;durP1;ratioP1;P2;durP2;ratioP2
4278;SDS011;2153;47.744;10.580;2023-07-24T00:02:21;26.67;;;9.97;;
4278;SDS011;2153;47.744;10.580;2023-07-24T00:04:48;27.33;;;9.70;;
4278;SDS011;2153;47.744;10.580;2023-07-24T00:07:16;27.93;;;10.57;;
4278;SDS011;2153;47.744;10.580;2023-07-24T00:09:42;30.30;;;10.90;;
4278;SDS011;2153;47.744;10.580;2023-07-24T00:12:09;29.53;;;11.70;;
4278;SDS011;2153;47.744;10.580;2023-07-24T00:14:36;27.00;;;10.17;;
4278;SDS011;2153;47.744;10.580;2023-07-24T00:17:03;26.10;;;9.20;;
4278;SDS011;2153;47.744;10.580;2023-07-24T00:19:30;26.23;;;9.53;;
4278;SDS011;2153;47.744;10.580;2023-07-24T00:21:56;30.07;;;10.67;;
4278;SDS011;2153;47.744;10.580;2023-07-24T00:24:24;25.47;;;10.27;;
4278;SDS011;2153;47.744;10.580;2023-07-24T00:26:51;24.77;;;9.93;;
4278;SDS011;2153;47.744;10.580;2023-07-24T00:29:18;28.60;;;10.47;;
4278;SDS011;2153;47.744;10.580;2023-07-24T00:31:44;28.10;;;9.37;;
4278;SDS011;2153;47.744;10.580;2023-07-24T00:34:11;28.20;;;9.27;;
4278;SDS011;2153;47.744;10.580;2023-07-24T00:36:38;23.23;;;9.00;;
4278;SDS011;2153;47.744;10.580;2023-07-24T00:39:04;29.07;;;10.90;;
4278;SDS011;2153;47.744;10.580;2023-07-24T00:41:32;32.83;;;9.53;;
4278;SDS011;2153;47.744;10.580;2023-07-24T00:43:59;33.37;;;9.23;;
4278;SDS011;2153;47.744;10.580;2023-07-24T00:46:26;22.80;;;8.90;;
4278;SDS011;2153;47.744;10.580;2023-07-24T00:48:57;29.00;;;9.63;;
4278;SDS011;2153;47.744;10.580;2023-07-24T00:51:24;26.73;;;9.20;;
4278;SDS011;2153;47.744;10.580;2023-07-24T00:53:52;24.47;;;9.60;;
4278;SDS011;2153;47.744;10.580;2023-07-24T00:56:20;26.57;;;8.80;;
4278;SDS011;2153;47.744;10.580;2023-07-24T00:58:48;26.40;;;9.80;;
4278;SDS011;2153;47.744;10.580;2023-07-24T01:01:15;26.30;;;9.90;;
4278;SDS011;2153;47.744;10.580;2023-07-24T01:03:43;25.20;;;9.00;;
4278;SDS011;2153;47.744;10.580;2023-07-24T01:06:10;24.83;;;9.90;;
4278;SDS011;2153;47.744;10.580;2023-07-24T01:08:37;26.60;;;10.40;;
4278;SDS011;2153;47.744;10.580;2023-07-24T01:11:05;30.10;;;9.60;;
4278;SDS011;2153;47.744;10.580;2023-07-24T01:13:39;27.20;;;9.23;;
4278;SDS011;2153;47.744;10.580;2023-07-24T01:16:12;28.10;;;9.60;;
4278;SDS011;2153;47.744;10.580;2023-07-24T01:18:42;28.67;;;10.07;;
4278;SDS011;2153;47.744;10.580;2023-07-24T01:21:11;29.40;;;10.70;;
4278;SDS011;2153;47.744;10.580;2023-07-24T01:23:44;27.40;;;9.33;;
4278;SDS011;2153;47.744;10.580;2023-07-24T01:26:19;23.80;;;9.13;;
4278;SDS011;2153;47.744;10.580;2023-07-24T01:28:48;28.13;;;9.77;;
4278;SDS011;2153;47.744;10.580;2023-07-24T01:31:15;25.93;;;9.93;;
4278;SDS011;2153;47.744;10.580;2023-07-24T01:33:42;26.03;;;9.90;;
4278;SDS011;2153;47.744;10.580;2023-07-24T01:36:09;28.50;;;10.90;;
4278;SDS011;2153;47.744;10.580;2023-07-24T01:38:37;29.63;;;9.77;;
4278;SDS011;2153;47.744;10.580;2023-07-24T01:41:04;25.80;;;9.60;;
4278;SDS011;2153;47.744;10.580;2023-07-24T01:43:33;28.23;;;10.40;;
4278;SDS011;2153;47.744;10.580;2023-07-24T01:46:00;25.57;;;9.03;;
4278;SDS011;2153;47.744;10.580;2023-07-24T01:48:27;29.03;;;9.47;;
4278;SDS011;2153;47.744;10.580;2023-07-24T01:50:54;23.67;;;9.50;;
4278;SDS011;2153;47.744;10.580;2023-07-24T01:53:20;31.20;;;9.30;;
4278;SDS011;2153;47.744;10.580;2023-07-24T01:55:47;26.77;;;9.10;;
4278;SDS011;2153;47.744;10.580;2023-07-24T01:58:14;26.00;;;9.50;;
4278;SDS011;2153;47.744;10.580;2023-07-24T02:00:42;27.90;;;10.13;;
4278;SDS011;2153;47.744;10.580;2023-07-24T02:03:09;26.63;;;9.63;;
4278;SDS011;2153;47.744;10.580;2023-07-24T02:05:35;30.43;;;10.40;;
4278;SDS011;2153;47.744;10.580;2023-07-24T02:08:02;28.30;;;10.40;;
4278;SDS011;2153;47.744;10.580;2023-07-24T02:10:29;24.47;;;9.93;;
4278;SDS011;2153;47.744;10.580;2023-07-24T02:12:56;30.90;;;11.13;;
4278;SDS011;2153;47.744;10.580;2023-07-24T02:15:22;28.60;;;11.30;;
4278;SDS011;2153;47.744;10.580;2023-07-24T02:17:50;28.80;;;10.17;;
4278;SDS011;2153;47.744;10.580;2023-07-24T02:20:17;25.77;;;10.10;;
4278;SDS011;2153;47.744;10.580;2023-07-24T02:22:44;32.87;;;11.10;;
4278;SDS011;2153;47.744;10.580;2023-07-24T02:25:10;29.80;;;10.67;;
4278;SDS011;2153;47.744;10.580;2023-07-24T02:27:37;30.90;;;11.07;;
4278;SDS011;2153;47.744;10.580;2023-07-24T02:30:04;25.50;;;10.87;;
4278;SDS011;2153;47.744;10.580;2023-07-24T02:32:32;25.07;;;8.57;;
4278;SDS011;2153;47.744;10.580;2023-07-24T02:35:00;29.57;;;10.50;;
4278;SDS011;2153;47.744;10.580;2023-07-24T02:37:26;27.47;;;8.93;;
4278;SDS011;2153;47.744;10.580;2023-07-24T02:39:53;26.53;;;8.33;;
4278;SDS011;2153;47.744;10.580;2023-07-24T02:42:20;23.20;;;8.90;;
4278;SDS011;2153;47.744;10.580;2023-07-24T02:44:46;21.97;;;8.03;;
4278;SDS011;2153;47.744;10.580;2023-07-24T02:47:13;21.67;;;8.20;;
4278;SDS011;2153;47.744;10.580;2023-07-24T02:49:40;24.90;;;7.87;;
4278;SDS011;2153;47.744;10.580;2023-07-24T02:52:08;22.80;;;8.23;;
4278;SDS011;2153;47.744;10.580;2023-07-24T02:54:34;20.93;;;7.00;;
4278;SDS011;2153;47.744;10.580;2023-07-24T02:57:01;22.40;;;7.40;;
4278;SDS011;2153;47.744;10.580;2023-07-24T02:59:29;24.30;;;8.40;;
4278;SDS011;2153;47.744;10.580;2023-07-24T03:01:56;21.53;;;7.57;;
4278;SDS011;2153;47.744;10.580;2023-07-24T03:04:23;25.43;;;9.00;;
4278;SDS011;2153;47.744;10.580;2023-07-24T03:06:50;23.80;;;6.87;;
4278;SDS011;2153;47.744;10.580;2023-07-24T03:09:18;23.60;;;9.03;;
4278;SDS011;2153;47.744;10.580;2023-07-24T03:11:45;22.90;;;8.40;;
4278;SDS011;2153;47.744;10.580;2023-07-24T03:14:11;21.43;;;8.17;;
4278;SDS011;2153;47.744;10.580;2023-07-24T03:16:38;23.03;;;7.80;;
4278;SDS011;2153;47.744;10.580;2023-07-24T03:19:05;25.00;;;8.63;;
4278;SDS011;2153;47.744;10.580;2023-07-24T03:21:31;24.50;;;8.70;;
4278;SDS011;2153;47.744;10.580;2023-07-24T03:23:58;20.80;;;7.80;;
4278;SDS011;2153;47.744;10.580;2023-07-24T03:26:26;23.50;;;8.57;;
4278;SDS011;2153;47.744;10.580;2023-07-24T03:28:53;26.33;;;8.67;;
4278;SDS011;2153;47.744;10.580;2023-07-24T03:31:19;28.43;;;8.30;;
4278;SDS011;2153;47.744;10.580;2023-07-24T03:33:46;22.87;;;8.87;;
4278;SDS011;2153;47.744;10.580;2023-07-24T03:36:13;25.07;;;8.73;;
4278;SDS011;2153;47.744;10.580;2023-07-24T03:38:39;26.97;;;8.60;;
4278;SDS011;2153;47.744;10.580;2023-07-24T03:41:06;22.17;;;8.17;;
4278;SDS011;2153;47.744;10.580;2023-07-24T03:43:34;27.10;;;8.30;;
4278;SDS011;2153;47.744;10.580;2023-07-24T03:46:01;28.63;;;9.00;;
4278;SDS011;2153;47.744;10.580;2023-07-24T03:48:27;23.37;;;8.53;;
4278;SDS011;2153;47.744;10.580;2023-07-24T03:50:57;28.23;;;8.30;;
4278;SDS011;2153;47.744;10.580;2023-07-24T03:53:25;26.13;;;8.30;;
4278;SDS011;2153;47.744;10.580;2023-07-24T03:55:53;27.57;;;10.00;;
4278;SDS011;2153;47.744;10.580;2023-07-24T03:58:19;23.00;;;8.10;;
4278;SDS011;2153;47.744;10.580;2023-07-24T04:00:48;25.27;;;9.70;;
4278;SDS011;2153;47.744;10.580;2023-07-24T04:03:15;23.07;;;7.63;;
4278;SDS011;2153;47.744;10.580;2023-07-24T04:05:42;23.30;;;9.00;;
4278;SDS011;2153;47.744;10.580;2023-07-24T04:08:08;27.43;;;10.00;;
4278;SDS011;2153;47.744;10.580;2023-07-24T04:10:35;23.47;;;8.43;;
4278;SDS011;2153;47.744;10.580;2023-07-24T04:13:02;21.57;;;8.20;;
4278;SDS011;2153;47.744;10.580;2023-07-24T04:15:29;24.23;;;8.70;;
4278;SDS011;2153;47.744;10.580;2023-07-24T04:17:57;27.13;;;9.70;;
4278;SDS011;2153;47.744;10.580;2023-07-24T04:20:23;29.83;;;10.63;;
4278;SDS011;2153;47.744;10.580;2023-07-24T04:22:50;28.87;;;10.40;;
4278;SDS011;2153;47.744;10.580;2023-07-24T04:25:17;34.00;;;11.33;;
4278;SDS011;2153;47.744;10.580;2023-07-24T04:27:43;25.43;;;9.43;;
4278;SDS011;2153;47.744;10.580;2023-07-24T04:30:10;27.37;;;9.77;;
4278;SDS011;2153;47.744;10.580;2023-07-24T04:32:37;27.20;;;10.70;;
4278;SDS011;2153;47.744;10.580;2023-07-24T04:35:06;24.57;;;9.77;;
4278;SDS011;2153;47.744;10.580;2023-07-24T04:37:33;36.33;;;11.00;;
4278;SDS011;2153;47.744;10.580;2023-07-24T04:40:00;28.60;;;10.60;;
4278;SDS011;2153;47.744;10.580;2023-07-24T04:42:27;26.67;;;10.37;;
4278;SDS011;2153;47.744;10.580;2023-07-24T04:44:54;28.33;;;10.93;;
4278;SDS011;2153;47.744;10.580;2023-07-24T04:47:20;34.70;;;10.80;;
4278;SDS011;2153;47.744;10.580;2023-07-24T04:49:47;25.43;;;9.77;;
4278;SDS011;2153;47.744;10.580;2023-07-24T04:52:15;28.07;;;10.97;;
4278;SDS011;2153;47.744;10.580;2023-07-24T04:54:42;38.00;;;11.67;;
4278;SDS011;2153;47.744;10.580;2023-07-24T04:57:09;29.40;;;11.20;;
4278;SDS011;2153;47.744;10.580;2023-07-24T04:59:35;29.30;;;11.47;;
4278;SDS011;2153;47.744;10.580;2023-07-24T05:02:02;28.83;;;11.20;;
4278;SDS011;2153;47.744;10.580;2023-07-24T05:04:29;28.57;;;11.53;;
4278;SDS011;2153;47.744;10.580;2023-07-24T05:06:56;26.23;;;10.03;;
4278;SDS011;2153;47.744;10.580;2023-07-24T05:09:24;36.90;;;11.47;;
4278;SDS011;2153;47.744;10.580;2023-07-24T05:11:51;27.40;;;10.67;;
4278;SDS011;2153;47.744;10.580;2023-07-24T05:14:17;29.10;;;12.07;;
4278;SDS011;2153;47.744;10.580;2023-07-24T05:16:44;28.03;;;10.60;;
4278;SDS011;2153;47.744;10.580;2023-07-24T05:19:11;28.70;;;12.00;;
4278;SDS011;2153;47.744;10.580;2023-07-24T05:21:37;26.17;;;10.60;;
4278;SDS011;2153;47.744;10.580;2023-07-24T05:24:04;25.87;;;10.57;;
4278;SDS011;2153;47.744;10.580;2023-07-24T05:26:32;27.37;;;11.30;;
4278;SDS011;2153;47.744;10.580;2023-07-24T05:28:59;25.37;;;10.33;;
4278;SDS011;2153;47.744;10.580;2023-07-24T05:31:26;25.43;;;10.73;;
4278;SDS011;2153;47.744;10.580;2023-07-24T05:33:52;29.77;;;11.50;;
4278;SDS011;2153;47.744;10.580;2023-07-24T05:36:19;28.27;;;11.30;;
4278;SDS011;2153;47.744;10.580;2023-07-24T05:38:46;26.10;;;11.60;;
4278;SDS011;2153;47.744;10.580;2023-07-24T05:41:12;29.40;;;12.13;;
4278;SDS011;2153;47.744;10.580;2023-07-24T05:43:40;27.97;;;12.67;;
4278;SDS011;2153;47.744;10.580;2023-07-24T05:46:07;45.17;;;11.23;;
4278;SDS011;2153;47.744;10.580;2023-07-24T05:48:34;28.60;;;11.73;;
4278;SDS011;2153;47.744;10.580;2023-07-24T05:51:00;29.93;;;12.00;;
4278;SDS011;2153;47.744;10.580;2023-07-24T05:53:27;27.03;;;10.87;;
4278;SDS011;2153;47.744;10.580;2023-07-24T05:55:57;27.30;;;10.70;;
4278;SDS011;2153;47.744;10.580;2023-07-24T05:58:25;31.87;;;11.97;;
4278;SDS011;2153;47.744;10.580;2023-07-24T06:00:53;33.73;;;11.20;;
4278;SDS011;2153;47.744;10.580;2023-07-24T06:03:20;37.50;;;12.43;;
4278;SDS011;2153;47.744;10.580;2023-07-24T06:05:50;31.50;;;11.93;;
4278;SDS011;2153;47.744;10.580;2023-07-24T06:08:17;25.80;;;11.03;;
4278;SDS011;2153;47.744;10.580;2023-07-24T06:10:45;26.10;;;10.97;;
4278;SDS011;2153;47.744;10.580;2023-07-24T06:13:12;29.67;;;11.87;;
4278;SDS011;2153;47.744;10.580;2023-07-24T06:15:39;25.57;;;11.13;;
4278;SDS011;2153;47.744;10.580;2023-07-24T06:18:07;27.53;;;11.83;;
4278;SDS011;2153;47.744;10.580;2023-07-24T06:20:34;29.10;;;12.83;;
4278;SDS011;2153;47.744;10.580;2023-07-24T06:23:01;31.30;;;12.93;;
4278;SDS011;2153;47.744;10.580;2023-07-24T06:25:29;27.27;;;12.43;;
4278;SDS011;2153;47.744;10.580;2023-07-24T06:27:55;27.67;;;12.60;;
4278;SDS011;2153;47.744;10.580;2023-07-24T06:30:22;29.60;;;12.47;;
4278;SDS011;2153;47.744;10.580;2023-07-24T06:32:49;30.23;;;12.83;;
4278;SDS011;2153;47.744;10.580;2023-07-24T06:35:17;33.13;;;11.67;;
4278;SDS011;2153;47.744;10.580;2023-07-24T06:37:44;27.83;;;11.37;;
4278;SDS011;2153;47.744;10.580;2023-07-24T06:40:11;30.10;;;11.60;;
4278;SDS011;2153;47.744;10.580;2023-07-24T06:42:38;26.60;;;10.40;;
4278;SDS011;2153;47.744;10.580;2023-07-24T06:45:05;26.03;;;10.40;;
4278;SDS011;2153;47.744;10.580;2023-07-24T06:47:32;25.10;;;8.17;;
4278;SDS011;2153;47.744;10.580;2023-07-24T06:49:59;24.07;;;7.80;;
4278;SDS011;2153;47.744;10.580;2023-07-24T06:52:28;19.70;;;6.17;;
4278;SDS011;2153;47.744;10.580;2023-07-24T06:54:55;21.40;;;6.80;;
4278;SDS011;2153;47.744;10.580;2023-07-24T06:57:23;20.10;;;7.00;;
4278;SDS011;2153;47.744;10.580;2023-07-24T06:59:49;18.40;;;4.93;;
4278;SDS011;2153;47.744;10.580;2023-07-24T07:02:16;15.37;;;4.20;;
4278;SDS011;2153;47.744;10.580;2023-07-24T07:04:43;15.03;;;3.70;;
4278;SDS011;2153;47.744;10.580;2023-07-24T07:07:10;16.43;;;4.90;;
4278;SDS011;2153;47.744;10.580;2023-07-24T07:09:38;18.10;;;5.20;;
4278;SDS011;2153;47.744;10.580;2023-07-24T07:12:05;17.10;;;5.40;;
4278;SDS011;2153;47.744;10.580;2023-07-24T07:14:32;17.47;;;5.43;;
4278;SDS011;2153;47.744;10.580;2023-07-24T07:16:59;20.80;;;6.47;;
4278;SDS011;2153;47.744;10.580;2023-07-24T07:19:26;18.20;;;5.87;;
4278;SDS011;2153;47.744;10.580;2023-07-24T07:21:53;17.33;;;5.47;;
4278;SDS011;2153;47.744;10.580;2023-07-24T07:24:20;18.80;;;5.63;;
4278;SDS011;2153;47.744;10.580;2023-07-24T07:26:48;15.73;;;4.77;;
4278;SDS011;2153;47.744;10.580;2023-07-24T07:29:15;17.27;;;4.60;;
4278;SDS011;2153;47.744;10.580;2023-07-24T07:31:41;15.43;;;4.50;;
4278;SDS011;2153;47.744;10.580;2023-07-24T07:34:08;18.67;;;4.80;;
4278;SDS011;2153;47.744;10.580;2023-07-24T07:36:35;14.90;;;4.27;;
4278;SDS011;2153;47.744;10.580;2023-07-24T07:39:01;16.47;;;4.20;;
4278;SDS011;2153;47.744;10.580;2023-07-24T07:41:28;15.50;;;4.33;;
4278;SDS011;2153;47.744;10.580;2023-07-24T07:43:56;18.30;;;4.67;;
4278;SDS011;2153;47.744;10.580;2023-07-24T07:46:23;18.30;;;5.13;;
4278;SDS011;2153;47.744;10.580;2023-07-24T07:48:50;18.57;;;5.10;;
4278;SDS011;2153;47.744;10.580;2023-07-24T07:51:17;18.50;;;5.37;;
4278;SDS011;2153;47.744;10.580;2023-07-24T07:53:44;18.17;;;5.20;;
4278;SDS011;2153;47.744;10.580;2023-07-24T07:56:11;26.17;;;5.07;;
4278;SDS011;2153;47.744;10.580;2023-07-24T07:58:37;17.10;;;4.53;;
4278;SDS011;2153;47.744;10.580;2023-07-24T08:01:05;16.60;;;4.60;;
4278;SDS011;2153;47.744;10.580;2023-07-24T08:03:32;17.67;;;5.10;;
4278;SDS011;2153;47.744;10.580;2023-07-24T08:05:59;16.47;;;4.97;;
4278;SDS011;2153;47.744;10.580;2023-07-24T08:08:26;18.93;;;4.70;;
4278;SDS011;2153;47.744;10.580;2023-07-24T08:10:53;19.07;;;3.83;;
4278;SDS011;2153;47.744;10.580;2023-07-24T08:13:19;16.77;;;4.80;;
4278;SDS011;2153;47.744;10.580;2023-07-24T08:15:46;15.90;;;4.07;;
4278;SDS011;2153;47.744;10.580;2023-07-24T08:18:14;16.67;;;4.33;;
4278;SDS011;2153;47.744;10.580;2023-07-24T08:20:41;15.80;;;4.30;;
4278;SDS011;2153;47.744;10.580;2023-07-24T08:23:07;15.90;;;3.80;;
4278;SDS011;2153;47.744;10.580;2023-07-24T08:25:34;17.23;;;4.73;;
4278;SDS011;2153;47.744;10.580;2023-07-24T08:28:01;14.80;;;3.97;;
4278;SDS011;2153;47.744;10.580;2023-07-24T08:30:29;16.63;;;4.07;;
4278;SDS011;2153;47.744;10.580;2023-07-24T08:32:56;14.90;;;3.70;;
4278;SDS011;2153;47.744;10.580;2023-07-24T08:35:25;16.10;;;4.30;;
4278;SDS011;2153;47.744;10.580;2023-07-24T08:37:52;15.07;;;3.87;;
4278;SDS011;2153;47.744;10.580;2023-07-24T08:40:18;17.30;;;4.13;;
4278;SDS011;2153;47.744;10.580;2023-07-24T08:42:45;14.73;;;3.80;;
4278;SDS011;2153;47.744;10.580;2023-07-24T08:45:16;14.87;;;3.90;;
4278;SDS011;2153;47.744;10.580;2023-07-24T08:47:43;15.30;;;4.13;;
4278;SDS011;2153;47.744;10.580;2023-07-24T08:50:11;13.80;;;3.60;;
4278;SDS011;2153;47.744;10.580;2023-07-24T08:52:41;15.33;;;4.30;;
4278;SDS011;2153;47.744;10.580;2023-07-24T08:55:10;19.03;;;4.80;;
4278;SDS011;2153;47.744;10.580;2023-07-24T08:57:37;16.40;;;4.20;;
4278;SDS011;2153;47.744;10.580;2023-07-24T09:00:04;16.73;;;4.30;;
4278;SDS011;2153;47.744;10.580;2023-07-24T09:02:31;15.07;;;3.50;;
4278;SDS011;2153;47.744;10.580;2023-07-24T09:04:59;15.33;;;4.53;;
4278;SDS011;2153;47.744;10.580;2023-07-24T09:07:25;17.50;;;4.60;;
4278;SDS011;2153;47.744;10.580;2023-07-24T09:09:54;14.83;;;4.40;;
4278;SDS011;2153;47.744;10.580;2023-07-24T09:12:21;16.47;;;5.20;;
4278;SDS011;2153;47.744;10.580;2023-07-24T09:14:49;15.53;;;3.90;;
4278;SDS011;2153;47.744;10.580;2023-07-24T09:17:26;15.63;;;4.43;;
4278;SDS011;2153;47.744;10.580;2023-07-24T09:19:55;18.30;;;5.60;;
4278;SDS011;2153;47.744;10.580;2023-07-24T09:22:22;17.37;;;5.03;;
4278;SDS011;2153;47.744;10.580;2023-07-24T09:24:51;17.40;;;4.47;;
4278;SDS011;2153;47.744;10.580;2023-07-24T09:27:20;17.23;;;5.47;;
4278;SDS011;2153;47.744;10.580;2023-07-24T09:29:50;16.63;;;5.20;;
4278;SDS011;2153;47.744;10.580;2023-07-24T09:32:20;15.80;;;4.97;;
4278;SDS011;2153;47.744;10.580;2023-07-24T09:34:48;17.00;;;5.33;;
4278;SDS011;2153;47.744;10.580;2023-07-24T09:37:23;16.20;;;5.07;;
4278;SDS011;2153;47.744;10.580;2023-07-24T09:39:51;19.63;;;5.87;;
4278;SDS011;2153;47.744;10.580;2023-07-24T09:42:26;17.43;;;5.40;;
4278;SDS011;2153;47.744;10.580;2023-07-24T09:44:54;17.80;;;5.47;;
4278;SDS011;2153;47.744;10.580;2023-07-24T09:47:20;19.40;;;6.10;;
4278;SDS011;2153;47.744;10.580;2023-07-24T09:49:47;16.87;;;5.80;;
4278;SDS011;2153;47.744;10.580;2023-07-24T09:52:14;18.90;;;6.03;;
4278;SDS011;2153;47.744;10.580;2023-07-24T09:54:46;20.27;;;6.67;;
4278;SDS011;2153;47.744;10.580;2023-07-24T09:57:22;18.40;;;5.20;;
4278;SDS011;2153;47.744;10.580;2023-07-24T09:59:49;17.47;;;5.40;;
4278;SDS011;2153;47.744;10.580;2023-07-24T10:02:17;21.83;;;5.93;;
4278;SDS011;2153;47.744;10.580;2023-07-24T10:04:44;20.80;;;6.03;;
4278;SDS011;2153;47.744;10.580;2023-07-24T10:07:11;16.07;;;5.30;;
4278;SDS011;2153;47.744;10.580;2023-07-24T10:09:39;16.73;;;5.90;;
4278;SDS011;2153;47.744;10.580;2023-07-24T10:12:08;17.20;;;6.37;;
4278;SDS011;2153;47.744;10.580;2023-07-24T10:14:36;18.20;;;6.07;;
4278;SDS011;2153;47.744;10.580;2023-07-24T10:17:04;16.73;;;5.50;;
4278;SDS011;2153;47.744;10.580;2023-07-24T10:19:40;19.50;;;7.03;;
4278;SDS011;2153;47.744;10.580;2023-07-24T10:22:08;20.67;;;5.97;;
4278;SDS011;2153;47.744;10.580;2023-07-24T10:24:35;17.93;;;5.90;;
4278;SDS011;2153;47.744;10.580;2023-07-24T10:27:03;21.30;;;6.10;;
4278;SDS011;2153;47.744;10.580;2023-07-24T10:29:33;17.77;;;5.40;;
4278;SDS011;2153;47.744;10.580;2023-07-24T10:32:03;18.33;;;6.83;;
4278;SDS011;2153;47.744;10.580;2023-07-24T10:34:37;19.97;;;6.07;;
4278;SDS011;2153;47.744;10.580;2023-07-24T10:37:06;18.97;;;6.17;;
4278;SDS011;2153;47.744;10.580;2023-07-24T10:39:37;24.53;;;6.30;;
4278;SDS011;2153;47.744;10.580;2023-07-24T10:42:05;17.47;;;6.23;;
4278;SDS011;2153;47.744;10.580;2023-07-24T10:44:34;16.97;;;5.80;;
4278;SDS011;2153;47.744;10.580;2023-07-24T10:47:03;17.50;;;6.10;;
4278;SDS011;2153;47.744;10.580;2023-07-24T10:49:30;18.30;;;7.17;;
4278;SDS011;2153;47.744;10.580;2023-07-24T10:51:57;19.57;;;6.67;;
4278;SDS011;2153;47.744;10.580;2023-07-24T10:54:24;19.90;;;7.60;;
4278;SDS011;2153;47.744;10.580;2023-07-24T10:56:57;19.80;;;7.30;;
4278;SDS011;2153;47.744;10.580;2023-07-24T10:59:34;19.40;;;6.90;;
4278;SDS011;2153;47.744;10.580;2023-07-24T11:02:03;20.47;;;6.87;;
4278;SDS011;2153;47.744;10.580;2023-07-24T11:04:30;17.87;;;6.27;;
4278;SDS011;2153;47.744;10.580;2023-07-24T11:06:58;17.43;;;6.20;;
4278;SDS011;2153;47.744;10.580;2023-07-24T11:09:33;19.73;;;6.90;;
4278;SDS011;2153;47.744;10.580;2023-07-24T11:12:08;17.23;;;6.83;;
4278;SDS011;2153;47.744;10.580;2023-07-24T11:14:45;20.40;;;8.33;;
4278;SDS011;2153;47.744;10.580;2023-07-24T11:17:13;18.43;;;6.97;;
4278;SDS011;2153;47.744;10.580;2023-07-24T11:19:40;18.47;;;6.53;;
4278;SDS011;2153;47.744;10.580;2023-07-24T11:22:07;17.67;;;6.50;;
4278;SDS011;2153;47.744;10.580;2023-07-24T11:24:40;17.40;;;6.50;;
4278;SDS011;2153;47.744;10.580;2023-07-24T11:27:09;17.43;;;6.20;;
4278;SDS011;2153;47.744;10.580;2023-07-24T11:29:38;16.63;;;6.60;;
4278;SDS011;2153;47.744;10.580;2023-07-24T11:32:05;18.10;;;6.07;;
4278;SDS011;2153;47.744;10.580;2023-07-24T11:34:33;18.87;;;7.20;;
4278;SDS011;2153;47.744;10.580;2023-07-24T11:37:01;17.20;;;5.87;;
4278;SDS011;2153;47.744;10.580;2023-07-24T11:39:28;18.37;;;6.40;;
4278;SDS011;2153;47.744;10.580;2023-07-24T11:41:54;17.30;;;6.50;;
4278;SDS011;2153;47.744;10.580;2023-07-24T11:44:24;18.10;;;6.70;;
4278;SDS011;2153;47.744;10.580;2023-07-24T11:46:51;18.43;;;6.30;;
4278;SDS011;2153;47.744;10.580;2023-07-24T11:49:25;18.23;;;6.60;;
4278;SDS011;2153;47.744;10.580;2023-07-24T11:51:53;18.50;;;6.70;;
4278;SDS011;2153;47.744;10.580;2023-07-24T11:54:26;17.97;;;6.40;;
4278;SDS011;2153;47.744;10.580;2023-07-24T11:56:52;18.37;;;7.03;;
4278;SDS011;2153;47.744;10.580;2023-07-24T11:59:19;19.63;;;7.00;;
4278;SDS011;2153;47.744;10.580;2023-07-24T12:01:46;17.97;;;5.63;;
4278;SDS011;2153;47.744;10.580;2023-07-24T12:04:13;15.27;;;5.93;;
4278;SDS011;2153;47.744;10.580;2023-07-24T12:06:41;17.13;;;5.33;;
4278;SDS011;2153;47.744;10.580;2023-07-24T12:09:09;17.73;;;4.70;;
4278;SDS011;2153;47.744;10.580;2023-07-24T12:11:42;15.40;;;4.80;;
4278;SDS011;2153;47.744;10.580;2023-07-24T12:14:11;16.33;;;5.10;;
4278;SDS011;2153;47.744;10.580;2023-07-24T12:16:39;20.13;;;5.30;;
4278;SDS011;2153;47.744;10.580;2023-07-24T12:19:05;19.77;;;5.50;;
4278;SDS011;2153;47.744;10.580;2023-07-24T12:21:32;20.30;;;4.50;;
4278;SDS011;2153;47.744;10.580;2023-07-24T12:23:59;18.60;;;5.63;;
4278;SDS011;2153;47.744;10.580;2023-07-24T12:26:27;16.60;;;4.93;;
4278;SDS011;2153;47.744;10.580;2023-07-24T12:28:53;19.53;;;5.00;;
4278;SDS011;2153;47.744;10.580;2023-07-24T12:31:20;18.10;;;5.90;;
4278;SDS011;2153;47.744;10.580;2023-07-24T12:33:47;17.30;;;5.40;;
4278;SDS011;2153;47.744;10.580;2023-07-24T12:36:14;21.33;;;5.77;;
4278;SDS011;2153;47.744;10.580;2023-07-24T12:38:40;16.60;;;4.90;;
4278;SDS011;2153;47.744;10.580;2023-07-24T12:41:08;18.70;;;5.80;;
4278;SDS011;2153;47.744;10.580;2023-07-24T12:43:36;21.00;;;6.07;;
4278;SDS011;2153;47.744;10.580;2023-07-24T12:46:02;17.10;;;4.67;;
4278;SDS011;2153;47.744;10.580;2023-07-24T12:48:29;17.17;;;4.67;;
4278;SDS011;2153;47.744;10.580;2023-07-24T12:50:56;19.10;;;5.53;;
4278;SDS011;2153;47.744;10.580;2023-07-24T12:53:25;17.40;;;5.60;;
4278;SDS011;2153;47.744;10.580;2023-07-24T12:55:51;16.30;;;4.70;;
4278;SDS011;2153;47.744;10.580;2023-07-24T12:58:18;17.70;;;5.30;;
4278;SDS011;2153;47.744;10.580;2023-07-24T13:00:46;19.07;;;4.90;;
4278;SDS011;2153;47.744;10.580;2023-07-24T13:03:13;14.77;;;4.27;;
4278;SDS011;2153;47.744;10.580;2023-07-24T13:05:39;18.03;;;5.80;;
4278;SDS011;2153;47.744;10.580;2023-07-24T13:08:06;17.87;;;5.20;;
4278;SDS011;2153;47.744;10.580;2023-07-24T13:10:33;15.30;;;4.27;;
4278;SDS011;2153;47.744;10.580;2023-07-24T13:12:59;16.53;;;4.53;;
4278;SDS011;2153;47.744;10.580;2023-07-24T13:15:26;16.43;;;5.10;;
4278;SDS011;2153;47.744;10.580;2023-07-24T13:17:55;15.67;;;4.63;;
4278;SDS011;2153;47.744;10.580;2023-07-24T13:20:22;16.33;;;4.83;;
4278;SDS011;2153;47.744;10.580;2023-07-24T13:22:50;18.27;;;5.40;;
4278;SDS011;2153;47.744;10.580;2023-07-24T13:25:17;16.23;;;4.60;;
4278;SDS011;2153;47.744;10.580;2023-07-24T13:27:43;17.87;;;5.67;;
4278;SDS011;2153;47.744;10.580;2023-07-24T13:30:10;17.90;;;5.40;;
4278;SDS011;2153;47.744;10.580;2023-07-24T13:32:37;16.27;;;4.87;;
4278;SDS011;2153;47.744;10.580;2023-07-24T13:35:06;18.70;;;5.67;;
4278;SDS011;2153;47.744;10.580;2023-07-24T13:37:33;19.40;;;5.80;;
4278;SDS011;2153;47.744;10.580;2023-07-24T13:40:00;15.97;;;4.73;;
4278;SDS011;2153;47.744;10.580;2023-07-24T13:42:26;18.90;;;5.77;;
4278;SDS011;2153;47.744;10.580;2023-07-24T13:44:53;19.43;;;7.27;;
4278;SDS011;2153;47.744;10.580;2023-07-24T13:47:20;16.87;;;5.57;;
4278;SDS011;2153;47.744;10.580;2023-07-24T13:49:47;21.47;;;6.43;;
4278;SDS011;2153;47.744;10.580;2023-07-24T13:52:15;15.27;;;4.87;;
4278;SDS011;2153;47.744;10.580;2023-07-24T13:54:41;14.63;;;4.60;;
4278;SDS011;2153;47.744;10.580;2023-07-24T13:57:08;18.50;;;5.40;;
4278;SDS011;2153;47.744;10.580;2023-07-24T13:59:35;17.63;;;5.90;;
4278;SDS011;2153;47.744;10.580;2023-07-24T14:02:03;17.10;;;5.10;;
4278;SDS011;2153;47.744;10.580;2023-07-24T14:04:30;17.10;;;5.70;;
4278;SDS011;2153;47.744;10.580;2023-07-24T14:06:57;16.90;;;5.60;;
4278;SDS011;2153;47.744;10.580;2023-07-24T14:09:25;17.97;;;5.03;;
4278;SDS011;2153;47.744;10.580;2023-07-24T14:11:52;17.67;;;6.57;;
4278;SDS011;2153;47.744;10.580;2023-07-24T14:14:18;18.23;;;5.10;;
4278;SDS011;2153;47.744;10.580;2023-07-24T14:16:45;16.50;;;5.43;;
4278;SDS011;2153;47.744;10.580;2023-07-24T14:19:12;18.73;;;6.20;;
4278;SDS011;2153;47.744;10.580;2023-07-24T14:21:38;17.10;;;5.07;;
4278;SDS011;2153;47.744;10.580;2023-07-24T14:24:05;17.73;;;5.10;;
4278;SDS011;2153;47.744;10.580;2023-07-24T14:26:33;16.60;;;5.50;;
4278;SDS011;2153;47.744;10.580;2023-07-24T14:29:01;16.47;;;5.00;;
4278;SDS011;2153;47.744;10.580;2023-07-24T14:31:28;15.53;;;4.60;;
4278;SDS011;2153;47.744;10.580;2023-07-24T14:33:55;16.40;;;4.80;;
4278;SDS011;2153;47.744;10.580;2023-07-24T14:36:21;17.30;;;4.50;;
4278;SDS011;2153;47.744;10.580;2023-07-24T14:38:48;16.87;;;4.57;;
4278;SDS011;2153;47.744;10.580;2023-07-24T14:41:15;16.73;;;4.77;;
4278;SDS011;2153;47.744;10.580;2023-07-24T14:43:43;16.70;;;4.47;;
4278;SDS011;2153;47.744;10.580;2023-07-24T14:46:10;14.90;;;4.20;;
4278;SDS011;2153;47.744;10.580;2023-07-24T14:48:37;14.10;;;3.90;;